Time;durP1;ratioP1;P1;durP2;ratioP2;P2;SDS_P1;SDS_P2;PMS_P1;PMS_P2;Temp;Humidity;BMP_temperature;BMP_pressure;BME280_temperature;BME280_humidity;BME280_pressure;Samples;Min_cycle;Max_cycle;Signal;HPM_P1;HPM_P2
2023/04/01 00:00:16;;;;;;;3.42;1.33;;;;;;;;;;5085810;28;20020;-68
2023/04/01 00:02:41;;;;;;;8.38;3.30;;;;;;;;;;5086271;28;20103;-68
2023/04/01 00:05:07;;;;;;;15.40;3.97;;;;;;;;;;5088138;28;20477;-66
2023/04/01 00:07:32;;;;;;;12.85;5.00;;;;;;;;;;5086517;28;20062;-69
2023/04/01 00:09:58;;;;;;;15.30;6.28;;;;;;;;;;5082543;28;20095;-68
2023/04/01 00:12:24;;;;;;;17.63;8.20;;;;;;;;;;5087671;28;20042;-66
2023/04/01 00:14:50;;;;;;;17.33;5.93;;;;;;;;;;5088407;28;20381;-67
2023/04/01 00:17:15;;;;;;;9.63;4.88;;;;;;;;;;5086194;28;20024;-66
2023/04/01 00:19:41;;;;;;;10.73;4.28;;;;;;;;;;5087320;28;20031;-69
2023/04/01 00:22:06;;;;;;;13.27;3.67;;;;;;;;;;5087619;28;20050;-67
2023/04/01 00:24:31;;;;;;;14.35;4.28;;;;;;;;;;5087778;28;20122;-69
2023/04/01 00:26:57;;;;;;;8.25;2.65;;;;;;;;;;5073073;28;20531;-69
2023/04/01 00:29:23;;;;;;;7.50;2.22;;;;;;;;;;5087942;28;20019;-66
2023/04/01 00:31:49;;;;;;;6.85;2.33;;;;;;;;;;5087726;28;20027;-69
2023/04/01 00:34:15;;;;;;;4.47;1.75;;;;;;;;;;5076362;28;20245;-66
2023/04/01 00:36:40;;;;;;;5.85;1.42;;;;;;;;;;5071116;28;20117;-68
2023/04/01 00:39:05;;;;;;;13.07;1.90;;;;;;;;;;5087238;28;20028;-67
2023/04/01 00:41:30;;;;;;;5.05;1.55;;;;;;;;;;5089475;28;20024;-68
2023/04/01 00:44:13;;;;;;;8.27;1.67;;;;;;;;;;5087481;28;20016;-67
2023/04/01 00:46:39;;;;;;;5.93;1.60;;;;;;;;;;5075716;28;20019;-69
2023/04/01 00:49:04;;;;;;;4.55;1.35;;;;;;;;;;5086296;28;20128;-66
2023/04/01 00:51:30;;;;;;;6.15;1.50;;;;;;;;;;5089684;28;20039;-68
2023/04/01 00:53:56;;;;;;;3.58;1.48;;;;;;;;;;5090201;28;20492;-65
2023/04/01 00:56:25;;;;;;;7.07;1.60;;;;;;;;;;5090557;28;20024;-68
2023/04/01 00:59:10;;;;;;;4.38;1.40;;;;;;;;;;5090608;28;20030;-68
2023/04/01 01:01:36;;;;;;;4.70;1.40;;;;;;;;;;5090508;28;20020;-68
2023/04/01 01:04:02;;;;;;;5.95;1.45;;;;;;;;;;5089461;28;20028;-67
2023/04/01 01:06:27;;;;;;;3.17;1.33;;;;;;;;;;5088779;28;20327;-64
2023/04/01 01:09:03;;;;;;;6.85;1.10;;;;;;;;;;5087255;28;20085;-68
2023/04/01 01:11:37;;;;;;;7.05;1.73;;;;;;;;;;5090858;28;20019;-66
2023/04/01 01:14:09;;;;;;;4.82;1.58;;;;;;;;;;5090780;28;20031;-67
2023/04/01 01:16:39;;;;;;;7.78;2.25;;;;;;;;;;5079502;28;20070;-69
2023/04/01 01:19:04;;;;;;;8.43;2.28;;;;;;;;;;5089521;28;20027;-68
2023/04/01 01:21:45;;;;;;;3.58;2.00;;;;;;;;;;5090880;28;20028;-66
2023/04/01 01:24:30;;;;;;;6.15;1.98;;;;;;;;;;5080622;28;20066;-69
2023/04/01 01:27:11;;;;;;;9.23;2.70;;;;;;;;;;5076132;28;20028;-65
2023/04/01 01:29:55;;;;;;;8.23;2.72;;;;;;;;;;5090529;28;20039;-68
2023/04/01 01:32:39;;;;;;;10.10;2.95;;;;;;;;;;5089531;28;20466;-66
2023/04/01 01:35:04;;;;;;;6.78;2.55;;;;;;;;;;5090116;28;20084;-66
2023/04/01 01:37:30;;;;;;;6.45;2.45;;;;;;;;;;5103008;22;20130;-68
2023/04/01 01:39:58;;;;;;;4.40;2.33;;;;;;;;;;5091599;28;20402;-69
2023/04/01 01:42:25;;;;;;;7.70;2.35;;;;;;;;;;5090893;28;20078;-69
2023/04/01 01:44:52;;;;;;;6.45;2.95;;;;;;;;;;5091793;28;20065;-69
2023/04/01 01:47:18;;;;;;;5.70;2.80;;;;;;;;;;5089670;28;20023;-68
2023/04/01 01:49:44;;;;;;;6.25;2.42;;;;;;;;;;5091262;28;20130;-68
2023/04/01 01:52:11;;;;;;;8.05;3.03;;;;;;;;;;5089780;28;20453;-68
2023/04/01 01:54:36;;;;;;;9.20;3.08;;;;;;;;;;5091313;28;20016;-68
2023/04/01 01:57:06;;;;;;;6.88;3.35;;;;;;;;;;5090758;28;20016;-70
2023/04/01 01:59:34;;;;;;;7.00;3.13;;;;;;;;;;5072640;28;20031;-69
2023/04/01 02:02:00;;;;;;;6.90;3.58;;;;;;;;;;5090683;28;20020;-69
2023/04/01 02:04:25;;;;;;;9.20;3.50;;;;;;;;;;5089547;28;20570;-70
2023/04/01 02:07:00;;;;;;;10.27;3.83;;;;;;;;;;5071648;28;20605;-69
2023/04/01 02:09:26;;;;;;;6.60;3.30;;;;;;;;;;5073126;28;20036;-68
2023/04/01 02:11:53;;;;;;;10.60;3.30;;;;;;;;;;5085627;28;20141;-68
2023/04/01 02:14:20;;;;;;;9.70;3.67;;;;;;;;;;5090919;28;20107;-68
2023/04/01 02:16:49;;;;;;;6.82;2.55;;;;;;;;;;5072211;28;20110;-70
2023/04/01 02:19:22;;;;;;;6.60;2.67;;;;;;;;;;5089615;28;20439;-68
2023/04/01 02:21:48;;;;;;;11.07;2.42;;;;;;;;;;5076833;28;20008;-69
2023/04/01 02:24:15;;;;;;;12.75;3.78;;;;;;;;;;5091182;28;20082;-69
2023/04/01 02:26:40;;;;;;;10.45;3.70;;;;;;;;;;5076412;28;20474;-68
2023/04/01 02:29:08;;;;;;;11.52;3.33;;;;;;;;;;5090879;28;20085;-68
2023/04/01 02:31:33;;;;;;;9.48;2.10;;;;;;;;;;5090883;28;20032;-69
2023/04/01 02:33:59;;;;;;;6.13;1.65;;;;;;;;;;5089598;28;20039;-68
2023/04/01 02:36:24;;;;;;;4.57;1.65;;;;;;;;;;5089606;28;20039;-68
2023/04/01 02:38:50;;;;;;;3.85;1.27;;;;;;;;;;5090471;28;20038;-67
2023/04/01 02:41:16;;;;;;;7.25;1.73;;;;;;;;;;5090738;28;20031;-67
2023/04/01 02:43:41;;;;;;;3.63;1.52;;;;;;;;;;5090615;28;20016;-68
2023/04/01 02:46:07;;;;;;;6.05;1.95;;;;;;;;;;5090551;28;20063;-69
2023/04/01 02:48:32;;;;;;;7.03;2.22;;;;;;;;;;5097324;28;20377;-70
2023/04/01 02:50:57;;;;;;;12.05;2.10;;;;;;;;;;5096871;28;20020;-69
2023/04/01 02:53:22;;;;;;;4.25;2.20;;;;;;;;;;5093097;28;20027;-68
2023/04/01 02:55:50;;;;;;;9.00;2.15;;;;;;;;;;5103952;28;20028;-68
2023/04/01 02:58:15;;;;;;;11.00;2.17;;;;;;;;;;5088864;28;20031;-68
2023/04/01 03:00:40;;;;;;;5.55;2.20;;;;;;;;;;5089809;28;20020;-70
2023/04/01 03:03:06;;;;;;;4.70;1.95;;;;;;;;;;5088664;28;20027;-69
2023/04/01 03:05:31;;;;;;;8.25;2.50;;;;;;;;;;5071913;28;20086;-67
2023/04/01 03:07:56;;;;;;;7.65;1.95;;;;;;;;;;5094152;28;20019;-67
2023/04/01 03:10:22;;;;;;;14.27;2.30;;;;;;;;;;5102915;28;20668;-69
2023/04/01 03:12:47;;;;;;;7.15;1.77;;;;;;;;;;5101847;28;20091;-68
2023/04/01 03:15:14;;;;;;;5.05;1.42;;;;;;;;;;5102265;28;20081;-68
2023/04/01 03:17:40;;;;;;;5.60;1.25;;;;;;;;;;5087993;28;20042;-69
2023/04/01 03:20:05;;;;;;;6.55;1.70;;;;;;;;;;5105870;28;20019;-68
2023/04/01 03:22:31;;;;;;;8.30;1.27;;;;;;;;;;5102747;28;20020;-68
2023/04/01 03:24:56;;;;;;;4.50;1.30;;;;;;;;;;5102133;28;20031;-69
2023/04/01 03:27:21;;;;;;;4.15;1.33;;;;;;;;;;5088338;28;20028;-69
2023/04/01 03:29:47;;;;;;;3.45;1.20;;;;;;;;;;5089863;28;20027;-69
2023/04/01 03:32:12;;;;;;;1.60;1.00;;;;;;;;;;5097397;28;20031;-68
2023/04/01 03:34:37;;;;;;;3.60;1.23;;;;;;;;;;5108000;28;20019;-68
2023/04/01 03:37:02;;;;;;;6.95;1.60;;;;;;;;;;5088502;28;20020;-69
2023/04/01 03:39:28;;;;;;;5.03;1.17;;;;;;;;;;5090138;28;20020;-69
2023/04/01 03:41:53;;;;;;;6.93;1.20;;;;;;;;;;5110106;28;20030;-67
2023/04/01 03:44:18;;;;;;;5.65;1.58;;;;;;;;;;5095872;28;20020;-68
2023/04/01 03:46:43;;;;;;;6.35;1.30;;;;;;;;;;5101350;28;20020;-68
2023/04/01 03:49:11;;;;;;;4.80;1.60;;;;;;;;;;5088143;28;20485;-68
2023/04/01 03:51:37;;;;;;;4.15;1.23;;;;;;;;;;5089565;28;20024;-69
2023/04/01 03:54:02;;;;;;;5.35;1.30;;;;;;;;;;5089730;28;20039;-67
2023/04/01 03:56:28;;;;;;;3.55;1.10;;;;;;;;;;5102064;28;20024;-70
2023/04/01 03:58:53;;;;;;;3.90;1.25;;;;;;;;;;5089428;28;20024;-69
2023/04/01 04:01:20;;;;;;;4.85;1.23;;;;;;;;;;5096907;28;20175;-69
2023/04/01 04:03:46;;;;;;;7.22;1.40;;;;;;;;;;5094519;28;20103;-68
2023/04/01 04:06:12;;;;;;;6.25;1.45;;;;;;;;;;5089266;28;20134;-69
2023/04/01 04:08:37;;;;;;;8.52;1.77;;;;;;;;;;5090972;28;20453;-69
2023/04/01 04:11:03;;;;;;;5.13;1.40;;;;;;;;;;5101549;28;20103;-69
2023/04/01 04:13:28;;;;;;;5.90;1.33;;;;;;;;;;5089026;28;20028;-69
2023/04/01 04:15:53;;;;;;;6.95;1.17;;;;;;;;;;5088932;28;20016;-69
2023/04/01 04:18:18;;;;;;;5.78;2.60;;;;;;;;;;5087619;28;20020;-69
2023/04/01 04:20:45;;;;;;;4.07;1.63;;;;;;;;;;5088877;28;20486;-70
2023/04/01 04:23:10;;;;;;;8.95;2.03;;;;;;;;;;5088945;28;20099;-69
2023/04/01 04:25:36;;;;;;;11.10;2.15;;;;;;;;;;5089352;28;20476;-69
2023/04/01 04:28:01;;;;;;;7.07;3.05;;;;;;;;;;5094916;28;20434;-69
2023/04/01 04:30:26;;;;;;;8.45;3.40;;;;;;;;;;5092574;28;20024;-68
2023/04/01 04:32:51;;;;;;;13.27;4.43;;;;;;;;;;5105923;28;20016;-69
2023/04/01 04:35:17;;;;;;;9.57;3.97;;;;;;;;;;5113684;28;20049;-69
2023/04/01 04:37:42;;;;;;;11.35;4.53;;;;;;;;;;5098821;28;20169;-70
2023/04/01 04:40:07;;;;;;;8.52;4.05;;;;;;;;;;5106246;28;20474;-67
2023/04/01 04:42:33;;;;;;;7.55;2.80;;;;;;;;;;5093004;28;20231;-68
2023/04/01 04:44:58;;;;;;;5.72;1.80;;;;;;;;;;5092325;28;20020;-69
2023/04/01 04:47:23;;;;;;;6.57;2.22;;;;;;;;;;5090767;28;20043;-68
2023/04/01 04:49:48;;;;;;;6.65;2.20;;;;;;;;;;5074437;28;20056;-69
2023/04/01 04:52:14;;;;;;;9.07;2.15;;;;;;;;;;5092648;28;20489;-69
2023/04/01 04:54:39;;;;;;;4.32;1.60;;;;;;;;;;5091723;28;20028;-68
2023/04/01 04:57:04;;;;;;;5.43;1.63;;;;;;;;;;5091768;28;20028;-67
2023/04/01 04:59:30;;;;;;;9.55;1.52;;;;;;;;;;5105515;28;20051;-68
2023/04/01 05:01:55;;;;;;;10.38;1.90;;;;;;;;;;5105298;28;20023;-68
2023/04/01 05:04:20;;;;;;;5.38;1.58;;;;;;;;;;5104749;28;20023;-68
2023/04/01 05:06:45;;;;;;;4.32;1.65;;;;;;;;;;5091757;28;20019;-69
2023/04/01 05:09:11;;;;;;;5.18;1.50;;;;;;;;;;5104678;28;20019;-68
2023/04/01 05:11:36;;;;;;;6.80;1.50;;;;;;;;;;5100081;28;20043;-69
2023/04/01 05:14:01;;;;;;;4.47;1.83;;;;;;;;;;5092542;28;20107;-69
2023/04/01 05:16:26;;;;;;;4.20;1.77;;;;;;;;;;5091794;28;20024;-69
2023/04/01 05:18:52;;;;;;;8.48;2.13;;;;;;;;;;5104769;28;20016;-69
2023/04/01 05:21:17;;;;;;;6.07;1.60;;;;;;;;;;5074140;28;20050;-68
2023/04/01 05:23:43;;;;;;;9.90;2.55;;;;;;;;;;5096936;28;20020;-68
2023/04/01 05:26:10;;;;;;;7.70;2.00;;;;;;;;;;5087817;28;20024;-71
2023/04/01 05:28:35;;;;;;;4.38;1.40;;;;;;;;;;5103155;28;20024;-68
2023/04/01 05:31:01;;;;;;;11.48;1.90;;;;;;;;;;5092192;28;20047;-70
2023/04/01 05:33:26;;;;;;;9.30;1.63;;;;;;;;;;5090307;28;20481;-71
2023/04/01 05:35:52;;;;;;;3.28;1.55;;;;;;;;;;5086130;28;20056;-69
2023/04/01 05:38:18;;;;;;;10.00;1.70;;;;;;;;;;5089510;28;20043;-72
2023/04/01 05:40:43;;;;;;;3.33;1.42;;;;;;;;;;5091114;28;20027;-71
2023/04/01 05:43:08;;;;;;;4.25;1.48;;;;;;;;;;5090869;28;20023;-69
2023/04/01 05:45:34;;;;;;;6.57;1.85;;;;;;;;;;5090498;28;20103;-70
2023/04/01 05:47:59;;;;;;;5.75;1.63;;;;;;;;;;5097030;28;20078;-71
2023/04/01 05:50:25;;;;;;;4.70;1.70;;;;;;;;;;5086892;28;20053;-70
2023/04/01 05:52:50;;;;;;;10.20;1.83;;;;;;;;;;5086490;28;20020;-70
2023/04/01 05:55:15;;;;;;;10.25;2.03;;;;;;;;;;5088732;28;20020;-70
2023/04/01 05:57:40;;;;;;;4.38;1.63;;;;;;;;;;5100966;28;20028;-72
2023/04/01 06:00:06;;;;;;;6.80;2.30;;;;;;;;;;5112071;28;20111;-71
2023/04/01 06:02:31;;;;;;;6.07;2.28;;;;;;;;;;5084210;28;20028;-70
2023/04/01 06:05:03;;;;;;;7.20;2.20;;;;;;;;;;5089225;28;21275;-71
2023/04/01 06:07:28;;;;;;;5.90;1.70;;;;;;;;;;5083875;28;20381;-69
2023/04/01 06:09:54;;;;;;;10.32;1.63;;;;;;;;;;5095432;28;20499;-71
2023/04/01 06:12:40;;;;;;;6.20;1.98;;;;;;;;;;5102165;28;20023;-70
2023/04/01 06:15:05;;;;;;;4.57;1.73;;;;;;;;;;5111191;28;20115;-67
2023/04/01 06:17:36;;;;;;;12.30;5.07;;;;;;;;;;5095602;28;20464;-70
2023/04/01 06:20:05;;;;;;;15.20;7.75;;;;;;;;;;5103382;28;20023;-70
2023/04/01 06:22:49;;;;;;;12.50;5.13;;;;;;;;;;5080792;28;20024;-70
2023/04/01 06:25:32;;;;;;;10.20;5.07;;;;;;;;;;5094006;28;20024;-73
2023/04/01 06:28:13;;;;;;;13.63;4.25;;;;;;;;;;5103437;28;20023;-72
2023/04/01 06:30:41;;;;;;;14.35;5.13;;;;;;;;;;5076474;28;20012;-71
2023/04/01 06:33:28;;;;;;;10.50;2.72;;;;;;;;;;5100354;28;20051;-72
2023/04/01 06:35:59;;;;;;;7.47;2.53;;;;;;;;;;5098650;28;20016;-73
2023/04/01 06:38:34;;;;;;;12.85;6.88;;;;;;;;;;5107534;28;20023;-71
2023/04/01 06:40:59;;;;;;;13.75;7.75;;;;;;;;;;5100627;28;20044;-72
2023/04/01 06:43:43;;;;;;;10.23;5.35;;;;;;;;;;5105177;28;20056;-71
2023/04/01 06:46:17;;;;;;;8.88;4.05;;;;;;;;;;5100202;28;20012;-70
2023/04/01 06:48:42;;;;;;;12.20;3.17;;;;;;;;;;5089585;28;20031;-71
2023/04/01 06:51:13;;;;;;;8.38;3.47;;;;;;;;;;5094909;28;20024;-72
2023/04/01 06:53:50;;;;;;;10.75;3.70;;;;;;;;;;5090832;28;20022;-71
2023/04/01 06:56:18;;;;;;;10.60;4.05;;;;;;;;;;5088494;28;20485;-71
2023/04/01 06:58:43;;;;;;;9.38;3.22;;;;;;;;;;5087534;28;20433;-69
2023/04/01 07:01:13;;;;;;;5.68;2.30;;;;;;;;;;5077287;28;20025;-74
2023/04/01 07:03:43;;;;;;;5.63;2.30;;;;;;;;;;5075394;28;20111;-71
2023/04/01 07:06:31;;;;;;;6.38;2.22;;;;;;;;;;5103932;28;20069;-72
2023/04/01 07:09:00;;;;;;;7.28;1.70;;;;;;;;;;5082291;28;20032;-71
2023/04/01 07:11:33;;;;;;;3.55;1.40;;;;;;;;;;5095623;28;20039;-71
2023/04/01 07:14:06;;;;;;;12.15;1.63;;;;;;;;;;5085936;28;20028;-69
2023/04/01 07:16:34;;;;;;;8.25;1.60;;;;;;;;;;5081149;28;20103;-67
2023/04/01 07:19:08;;;;;;;12.65;6.55;;;;;;;;;;5082703;28;20043;-69
2023/04/01 07:21:41;;;;;;;5.10;1.10;;;;;;;;;;5081066;28;20096;-67
2023/04/01 07:24:11;;;;;;;2.05;0.70;;;;;;;;;;5081868;28;20169;-68
2023/04/01 07:26:36;;;;;;;11.40;3.53;;;;;;;;;;5088424;28;20016;-68
2023/04/01 07:29:05;;;;;;;2.92;0.90;;;;;;;;;;5094540;28;20083;-67
2023/04/01 07:31:42;;;;;;;1.35;0.68;;;;;;;;;;5097512;28;20502;-68
2023/04/01 07:34:23;;;;;;;8.55;0.90;;;;;;;;;;5082462;28;20397;-69
2023/04/01 07:36:51;;;;;;;2.50;1.00;;;;;;;;;;5119539;22;20320;-68
2023/04/01 07:39:22;;;;;;;2.95;0.95;;;;;;;;;;5087832;28;20031;-69
2023/04/01 07:42:06;;;;;;;0.90;0.75;;;;;;;;;;5088019;28;20020;-67
2023/04/01 07:44:31;;;;;;;2.15;0.80;;;;;;;;;;5088816;28;20023;-68
2023/04/01 07:47:12;;;;;;;6.10;0.90;;;;;;;;;;5081876;28;20088;-65
2023/04/01 07:49:50;;;;;;;4.57;0.68;;;;;;;;;;5078234;28;20024;-66
2023/04/01 07:52:24;;;;;;;4.22;0.95;;;;;;;;;;5077233;28;20104;-69
2023/04/01 07:54:55;;;;;;;2.97;1.00;;;;;;;;;;5074795;28;20374;-66
2023/04/01 07:57:23;;;;;;;2.97;0.85;;;;;;;;;;5076881;28;20029;-67
2023/04/01 08:00:07;;;;;;;3.00;0.73;;;;;;;;;;5066944;28;20486;-67
2023/04/01 08:02:50;;;;;;;2.10;0.90;;;;;;;;;;5084114;28;20115;-67
2023/04/01 08:05:25;;;;;;;3.45;0.93;;;;;;;;;;5087753;28;20099;-69
2023/04/01 08:07:53;;;;;;;1.90;0.85;;;;;;;;;;5073310;28;20020;-68
2023/04/01 08:10:21;;;;;;;3.22;0.70;;;;;;;;;;5077899;28;20036;-67
2023/04/01 08:12:52;;;;;;;2.93;1.10;;;;;;;;;;5076029;28;20036;-65
2023/04/01 08:15:23;;;;;;;5.22;1.15;;;;;;;;;;5078224;28;20021;-64
2023/04/01 08:17:54;;;;;;;2.67;0.60;;;;;;;;;;5069095;28;20546;-65
2023/04/01 08:20:33;;;;;;;0.90;0.70;;;;;;;;;;5072228;28;20100;-67
2023/04/01 08:23:14;;;;;;;3.30;1.10;;;;;;;;;;5071728;28;20036;-68
2023/04/01 08:25:42;;;;;;;2.13;0.77;;;;;;;;;;5071023;28;20040;-68
2023/04/01 08:28:07;;;;;;;1.25;0.70;;;;;;;;;;5069907;28;20024;-68
2023/04/01 08:30:38;;;;;;;3.60;1.00;;;;;;;;;;5091629;28;20320;-66
2023/04/01 08:33:10;;;;;;;3.05;0.73;;;;;;;;;;5090462;28;20067;-67
2023/04/01 08:35:48;;;;;;;1.95;0.80;;;;;;;;;;5091503;28;20115;-68
2023/04/01 08:38:23;;;;;;;3.75;0.80;;;;;;;;;;5076126;28;20031;-68
2023/04/01 08:40:55;;;;;;;0.95;0.60;;;;;;;;;;5054271;28;20366;-67
2023/04/01 08:43:42;;;;;;;5.20;1.10;;;;;;;;;;5070607;28;20514;-68
2023/04/01 08:46:32;;;;;;;1.45;0.90;;;;;;;;;;5071504;28;20020;-68
2023/04/01 08:48:57;;;;;;;3.20;1.20;;;;;;;;;;5069742;28;20644;-68
2023/04/01 08:51:34;;;;;;;2.97;0.88;;;;;;;;;;5083305;28;20123;-67
2023/04/01 08:54:03;;;;;;;1.75;0.82;;;;;;;;;;5056044;28;20336;-67
2023/04/01 08:56:28;;;;;;;1.30;0.60;;;;;;;;;;5070402;28;20032;-65
2023/04/01 08:59:12;;;;;;;2.27;0.90;;;;;;;;;;5057149;28;20082;-67
2023/04/01 09:01:40;;;;;;;2.95;1.13;;;;;;;;;;5070973;28;20329;-65
2023/04/01 09:04:24;;;;;;;2.50;0.70;;;;;;;;;;5069371;28;20044;-70
2023/04/01 09:06:49;;;;;;;3.15;0.88;;;;;;;;;;5084711;28;20718;-65
2023/04/01 09:09:20;;;;;;;3.92;0.85;;;;;;;;;;5070587;28;20092;-69
2023/04/01 09:12:01;;;;;;;2.63;0.80;;;;;;;;;;5073594;28;20024;-69
2023/04/01 09:14:35;;;;;;;5.20;0.93;;;;;;;;;;5068132;28;20367;-67
2023/04/01 09:17:19;;;;;;;1.98;0.68;;;;;;;;;;5068097;28;20025;-68
2023/04/01 09:19:50;;;;;;;1.17;0.60;;;;;;;;;;5070010;28;20104;-68
2023/04/01 09:22:34;;;;;;;4.18;1.05;;;;;;;;;;5070125;28;20252;-68
2023/04/01 09:24:59;;;;;;;2.22;0.70;;;;;;;;;;5058736;28;20097;-66
2023/04/01 09:27:30;;;;;;;7.03;1.05;;;;;;;;;;5069382;28;20500;-68
2023/04/01 09:29:58;;;;;;;4.18;1.00;;;;;;;;;;5071020;28;20024;-70
2023/04/01 09:32:50;;;;;;;1.23;0.73;;;;;;;;;;5068866;28;20028;-69
2023/04/01 09:35:19;;;;;;;1.65;0.63;;;;;;;;;;5065717;28;20340;-67
2023/04/01 09:37:44;;;;;;;3.22;0.85;;;;;;;;;;5089203;28;20553;-65
2023/04/01 09:40:22;;;;;;;2.90;1.17;;;;;;;;;;5090828;28;20036;-68
2023/04/01 09:43:10;;;;;;;2.60;0.80;;;;;;;;;;5090832;28;20020;-69
2023/04/01 09:45:54;;;;;;;1.65;0.68;;;;;;;;;;5071403;28;20064;-68
2023/04/01 09:48:29;;;;;;;6.50;1.00;;;;;;;;;;5063101;28;20160;-69
2023/04/01 09:51:03;;;;;;;3.58;1.05;;;;;;;;;;5070040;28;20099;-65
2023/04/01 09:53:34;;;;;;;1.90;0.90;;;;;;;;;;5069930;28;20020;-67
2023/04/01 09:56:19;;;;;;;3.42;1.02;;;;;;;;;;5069941;28;20029;-68
2023/04/01 09:59:03;;;;;;;2.85;0.93;;;;;;;;;;5069033;28;20020;-68
2023/04/01 10:01:47;;;;;;;4.00;0.93;;;;;;;;;;5068892;28;20025;-65
2023/04/01 10:04:15;;;;;;;2.22;0.90;;;;;;;;;;5068241;28;20056;-68
2023/04/01 10:06:51;;;;;;;3.27;1.10;;;;;;;;;;5066968;28;20021;-67
2023/04/01 10:09:35;;;;;;;4.82;0.95;;;;;;;;;;5061801;28;20021;-66
2023/04/01 10:12:00;;;;;;;1.67;0.80;;;;;;;;;;5067699;28;20025;-68
2023/04/01 10:14:28;;;;;;;3.60;1.00;;;;;;;;;;5067373;28;20021;-65
2023/04/01 10:16:53;;;;;;;1.83;1.02;;;;;;;;;;5076156;28;20248;-68
2023/04/01 10:19:18;;;;;;;2.67;1.20;;;;;;;;;;5070036;28;20431;-67
2023/04/01 10:22:02;;;;;;;4.88;1.10;;;;;;;;;;5090181;28;20020;-67
2023/04/01 10:24:46;;;;;;;5.97;1.10;;;;;;;;;;5071290;28;20020;-65
2023/04/01 10:27:30;;;;;;;2.13;1.05;;;;;;;;;;5068921;28;20020;-66
2023/04/01 10:30:14;;;;;;;5.10;0.98;;;;;;;;;;5065460;28;20024;-66
2023/04/01 10:32:50;;;;;;;3.05;1.08;;;;;;;;;;5067676;28;20165;-68
2023/04/01 10:35:38;;;;;;;4.00;1.00;;;;;;;;;;5081831;28;20020;-67
2023/04/01 10:38:22;;;;;;;3.78;0.90;;;;;;;;;;5052864;28;20561;-66
2023/04/01 10:41:01;;;;;;;4.20;0.90;;;;;;;;;;5085182;28;20179;-69
2023/04/01 10:43:45;;;;;;;1.20;0.80;;;;;;;;;;5070100;28;20048;-66
2023/04/01 10:46:11;;;;;;;0.50;0.50;;;;;;;;;;5059763;28;20035;-68
2023/04/01 10:48:55;;;;;;;1.38;0.47;;;;;;;;;;5068767;28;20460;-65
2023/04/01 10:51:20;;;;;;;3.58;0.63;;;;;;;;;;5081681;28;20023;-65
2023/04/01 10:54:15;;;;;;;2.40;0.70;;;;;;;;;;5066250;28;20111;-67
2023/04/01 10:56:41;;;;;;;2.92;0.70;;;;;;;;;;5068296;28;20025;-67
2023/04/01 10:59:15;;;;;;;2.42;1.00;;;;;;;;;;5076812;28;20357;-67
2023/04/01 11:01:52;;;;;;;5.45;1.98;;;;;;;;;;5072208;28;20486;-67
2023/04/01 11:04:36;;;;;;;2.97;0.90;;;;;;;;;;5067605;28;20467;-68
2023/04/01 11:07:13;;;;;;;1.90;0.85;;;;;;;;;;5051723;28;20025;-69
2023/04/01 11:09:39;;;;;;;3.45;0.75;;;;;;;;;;5076497;28;20028;-65
2023/04/01 11:12:07;;;;;;;3.90;0.55;;;;;;;;;;5068838;28;20027;-69
2023/04/01 11:14:50;;;;;;;2.57;0.77;;;;;;;;;;5065458;28;20021;-68
2023/04/01 11:17:19;;;;;;;3.05;1.38;;;;;;;;;;5058731;28;20209;-68
2023/04/01 11:19:44;;;;;;;2.03;0.60;;;;;;;;;;5068059;28;20361;-66
2023/04/01 11:22:17;;;;;;;2.67;0.70;;;;;;;;;;5068531;28;20059;-67
2023/04/01 11:24:48;;;;;;;1.98;0.77;;;;;;;;;;5068253;28;20012;-65
2023/04/01 11:27:25;;;;;;;1.23;0.60;;;;;;;;;;5066619;28;20143;-68
2023/04/01 11:29:53;;;;;;;4.45;0.60;;;;;;;;;;5068274;28;20150;-70
2023/04/01 11:32:24;;;;;;;1.70;0.50;;;;;;;;;;5066629;28;20406;-68
2023/04/01 11:34:50;;;;;;;1.55;0.55;;;;;;;;;;5067411;28;20047;-68
2023/04/01 11:37:34;;;;;;;0.70;0.60;;;;;;;;;;5077264;28;20024;-66
2023/04/01 11:39:59;;;;;;;2.17;0.80;;;;;;;;;;5067721;28;20021;-70
2023/04/01 11:42:43;;;;;;;1.10;0.60;;;;;;;;;;5081237;28;20012;-68
2023/04/01 11:45:30;;;;;;;5.00;1.10;;;;;;;;;;5068142;28;20214;-66
2023/04/01 11:47:56;;;;;;;1.33;0.70;;;;;;;;;;5067937;28;20044;-68
2023/04/01 11:50:28;;;;;;;2.42;1.00;;;;;;;;;;5072066;28;20510;-67
2023/04/01 11:52:56;;;;;;;0.60;0.50;;;;;;;;;;5077562;28;20021;-66
2023/04/01 11:55:40;;;;;;;2.80;0.88;;;;;;;;;;5067643;28;20021;-69
2023/04/01 11:58:38;;;;;;;1.05;0.60;;;;;;;;;;5075736;28;20028;-67
2023/04/01 12:01:09;;;;;;;0.98;0.52;;;;;;;;;;5032272;28;20040;-66
2023/04/01 12:03:37;;;;;;;0.70;0.52;;;;;;;;;;5074294;28;20596;-67
2023/04/01 12:06:14;;;;;;;2.38;0.90;;;;;;;;;;5067259;28;20064;-68
2023/04/01 12:08:42;;;;;;;2.45;0.73;;;;;;;;;;5066658;28;20032;-71
2023/04/01 12:11:17;;;;;;;1.07;0.63;;;;;;;;;;5068384;28;20190;-69
2023/04/01 12:14:01;;;;;;;3.03;0.80;;;;;;;;;;5068141;28;20283;-68
2023/04/01 12:16:42;;;;;;;1.08;0.80;;;;;;;;;;5081365;28;20169;-66
2023/04/01 12:19:19;;;;;;;2.08;1.00;;;;;;;;;;5074450;28;20073;-69
2023/04/01 12:21:58;;;;;;;5.07;1.73;;;;;;;;;;5066396;28;20021;-68
2023/04/01 12:24:38;;;;;;;1.33;0.70;;;;;;;;;;5066778;28;20017;-66
2023/04/01 12:27:12;;;;;;;1.05;0.55;;;;;;;;;;5067639;28;20035;-66
2023/04/01 12:29:57;;;;;;;1.25;0.60;;;;;;;;;;5067551;28;20048;-66
2023/04/01 12:32:22;;;;;;;2.88;0.80;;;;;;;;;;5065165;28;20016;-66
2023/04/01 12:35:00;;;;;;;1.35;0.80;;;;;;;;;;5073001;28;20028;-65
2023/04/01 12:37:44;;;;;;;2.65;0.75;;;;;;;;;;5084198;28;20043;-65
2023/04/01 12:40:28;;;;;;;3.53;0.88;;;;;;;;;;5066647;28;20062;-68
2023/04/01 12:43:05;;;;;;;0.65;0.38;;;;;;;;;;5067228;28;20038;-66
2023/04/01 12:45:30;;;;;;;2.38;0.60;;;;;;;;;;5067362;28;20021;-69
2023/04/01 12:48:21;;;;;;;0.57;0.50;;;;;;;;;;5068185;28;20099;-69
2023/04/01 12:51:04;;;;;;;0.68;0.43;;;;;;;;;;5062330;28;20020;-70
2023/04/01 12:53:29;;;;;;;3.13;0.60;;;;;;;;;;5080458;28;20394;-68
2023/04/01 12:55:55;;;;;;;0.80;0.50;;;;;;;;;;5079915;28;20058;-71
2023/04/01 12:58:24;;;;;;;0.85;0.60;;;;;;;;;;5069333;28;20474;-69
2023/04/01 13:01:08;;;;;;;1.02;0.65;;;;;;;;;;5071133;28;20020;-65
2023/04/01 13:03:51;;;;;;;3.47;0.50;;;;;;;;;;5066162;28;20040;-67
2023/04/01 13:06:20;;;;;;;1.75;0.55;;;;;;;;;;5076902;28;20008;-68
2023/04/01 13:09:04;;;;;;;1.65;0.68;;;;;;;;;;5048312;28;20119;-66
2023/04/01 13:11:38;;;;;;;1.10;0.60;;;;;;;;;;5064615;28;20174;-69
2023/04/01 13:14:04;;;;;;;0.93;0.50;;;;;;;;;;5069854;28;20059;-69
2023/04/01 13:16:31;;;;;;;1.37;0.67;;;;;;;;;;5082873;28;20072;-66
2023/04/01 13:19:11;;;;;;;2.33;0.70;;;;;;;;;;5069889;28;20277;-68
2023/04/01 13:21:45;;;;;;;0.65;0.57;;;;;;;;;;5069729;28;20021;-66
2023/04/01 13:24:13;;;;;;;0.85;0.55;;;;;;;;;;5069962;28;20021;-66
2023/04/01 13:26:39;;;;;;;1.85;0.80;;;;;;;;;;5068805;28;20378;-69
2023/04/01 13:29:04;;;;;;;2.45;0.57;;;;;;;;;;5069340;28;20039;-68
2023/04/01 13:31:36;;;;;;;2.83;0.73;;;;;;;;;;5073473;28;20032;-71
2023/04/01 13:34:13;;;;;;;0.77;0.50;;;;;;;;;;5069089;28;20020;-68
2023/04/01 13:36:44;;;;;;;4.20;1.90;;;;;;;;;;5070344;28;20020;-67
2023/04/01 13:39:15;;;;;;;1.13;0.63;;;;;;;;;;5073515;28;20056;-66
2023/04/01 13:41:43;;;;;;;3.13;0.60;;;;;;;;;;5070393;28;20016;-68
2023/04/01 13:44:11;;;;;;;0.60;0.40;;;;;;;;;;5070633;28;20043;-68
2023/04/01 13:47:05;;;;;;;1.95;0.70;;;;;;;;;;5074723;28;20024;-68
2023/04/01 13:49:41;;;;;;;4.93;1.13;;;;;;;;;;5073986;28;20143;-66
2023/04/01 13:52:27;;;;;;;4.90;1.73;;;;;;;;;;5049603;28;20398;-66
2023/04/01 13:55:10;;;;;;;2.20;0.90;;;;;;;;;;5066944;28;20046;-67
2023/04/01 13:58:02;;;;;;;2.05;0.90;;;;;;;;;;5083254;28;20457;-64
2023/04/01 14:01:00;;;;;;;2.00;0.82;;;;;;;;;;5077277;28;20356;-67
2023/04/01 14:03:44;;;;;;;1.63;0.80;;;;;;;;;;4992917;28;20048;-67
2023/04/01 14:06:15;;;;;;;4.72;1.02;;;;;;;;;;5068142;28;20029;-66
2023/04/01 14:08:59;;;;;;;4.45;1.60;;;;;;;;;;5069317;28;20409;-68
2023/04/01 14:11:30;;;;;;;5.60;1.75;;;;;;;;;;5063938;28;20025;-67
2023/04/01 14:14:01;;;;;;;3.42;1.10;;;;;;;;;;5085853;28;20028;-66
2023/04/01 14:16:44;;;;;;;5.07;1.60;;;;;;;;;;5068906;28;20024;-67
2023/04/01 14:19:25;;;;;;;2.25;1.02;;;;;;;;;;5068050;28;20029;-68
2023/04/01 14:21:55;;;;;;;4.65;1.10;;;;;;;;;;5081497;28;20095;-68
2023/04/01 14:24:39;;;;;;;1.00;0.70;;;;;;;;;;5069380;28;20584;-67
2023/04/01 14:27:24;;;;;;;2.33;0.70;;;;;;;;;;5068204;28;20036;-67
2023/04/01 14:29:59;;;;;;;4.65;1.42;;;;;;;;;;5077400;28;20081;-68
2023/04/01 14:32:38;;;;;;;4.95;1.35;;;;;;;;;;5087751;28;20024;-67
2023/04/01 14:35:10;;;;;;;1.75;1.05;;;;;;;;;;5089233;28;20484;-66
2023/04/01 14:37:54;;;;;;;1.30;0.93;;;;;;;;;;5070398;28;20043;-67
2023/04/01 14:40:23;;;;;;;2.13;0.90;;;;;;;;;;5062665;28;20112;-66
2023/04/01 14:42:48;;;;;;;;;;;;;;;;;;5089081;28;20020;-66
2023/04/01 14:45:13;;;;;;;3.15;0.80;;;;;;;;;;5068954;28;19908;-69
2023/04/01 14:47:47;;;;;;;2.17;0.90;;;;;;;;;;5067105;28;20333;-65
2023/04/01 14:50:17;;;;;;;3.47;1.20;;;;;;;;;;5071835;28;20506;-70
2023/04/01 14:52:51;;;;;;;2.10;1.02;;;;;;;;;;5073288;28;20040;-68
2023/04/01 14:55:20;;;;;;;4.32;1.13;;;;;;;;;;5069640;28;20106;-68
2023/04/01 14:57:58;;;;;;;3.28;0.98;;;;;;;;;;5068152;28;20028;-68
2023/04/01 15:00:23;;;;;;;2.63;1.05;;;;;;;;;;5068969;28;20025;-66
2023/04/01 15:03:00;;;;;;;1.30;0.70;;;;;;;;;;5068646;28;20371;-67
2023/04/01 15:05:39;;;;;;;2.97;0.95;;;;;;;;;;5070988;28;20115;-66